Skip Navigation Links
NOAA logo - Click to go to the NOAA homepage
NOAA's National Weather Service
Alaska Aviation Weather Unit
  NWS logo - Click to go to the NWS homepage
Left Navbar Graphic     17 AKDT = 01 GMT

   
NOAA is celebrating 200 years of science, service, and stewardship. Visit the NOAA 200th celebration Web site to learn more.
USA.gov is the U.S. Government's official Web portal to all Federal, state and local government Web resources and services.
Facebook
NWS on Facebook

Important Change Regarding the AAWU Web Presence

 

Over the last several months, the AAWU has been working to navigate its webpages to a nationally supported server. Security, as well as other needs, have necessitated the change.  In the process, we have made an effort to enhance the functionality of our website, as well as some of our products. As of June 27, 2017, aawu.arh.noaa.gov will be discontinued. The new AAWU web address is weather.gov/aawu. It is now live and will run in-parallel with the old site until it is discontinued. Please send any feedback or questions regarding the new webpages to nws.ar.aawu.webauthors@noaa.gov.  Thank you for your patience during this time of transition.
AAWU Home :: Display TAF Add Bookmark
TAF PAGY 252324Z 2600/2624 21015KT P6SM VCSH SCT050 BKN120
     FM260900 21006KT P6SM FEW050 SCT100
     FM261900 21015KT P6SM SCT050
      AMD LTD TO CLD VIS AND WIND=

METAR PAGY 251953Z AUTO 24004KT 10SM CLR 14/09 A2994 RMK AO2 SLP137 T01440089 TSNO= METAR PAGY 252053Z AUTO 28005KT 10SM CLR 17/08 A2992 RMK AO2 SLP131 T01670078 58013 TSNO= METAR PAGY 252153Z AUTO 21017KT 10SM SCT100 17/08 A2990 RMK AO2 SLP126 T01670083 TSNO= METAR PAGY 252253Z AUTO 21016KT 10SM CLR 17/09 A2989 RMK AO2 SLP123 T01720089 TSNO= METAR PAGY 252353Z AUTO 21019KT 10SM FEW100 17/08 A2988 RMK AO2 SLP118 T01670083 10178 20133 58014 TSNO=
 Alaska TAF Map

NOAA's National Weather Service
Alaska Aviation Weather Unit
6930 Sand Lake Road
Anchorage, AK 99502-1845
Disclaimer
Credits
Glossary
Privacy Policy
About Us
Career Opportunities
Contact AAWU Internet Services Site last modified: April, 17th 2012